createdAt,value
2022-08-18T00:00:23.458Z,21.19
2022-08-18T00:03:20.243Z,21.10
2022-08-18T00:06:19.618Z,20.91
2022-08-18T00:09:09.639Z,20.88
2022-08-18T00:11:56.931Z,20.85
2022-08-18T00:14:46.015Z,20.83
2022-08-18T00:17:34.630Z,20.80
2022-08-18T00:20:23.692Z,20.74
2022-08-18T00:23:11.057Z,20.73
2022-08-18T00:25:59.902Z,20.71
2022-08-18T00:28:47.158Z,20.64
2022-08-18T00:31:34.554Z,20.57
2022-08-18T00:34:21.778Z,20.52
2022-08-18T00:37:09.053Z,20.51
2022-08-18T00:39:56.470Z,20.54
2022-08-18T00:42:48.760Z,20.43
2022-08-18T00:45:40.665Z,20.46
2022-08-18T00:48:27.946Z,20.43
2022-08-18T00:51:20.950Z,20.53
2022-08-18T00:54:16.142Z,20.54
2022-08-18T00:57:06.832Z,20.59
2022-08-18T01:00:07.458Z,20.54
2022-08-18T01:02:57.763Z,20.49
2022-08-18T01:06:10.244Z,20.42
2022-08-18T01:08:57.956Z,20.50
2022-08-18T01:11:46.005Z,20.48
2022-08-18T01:14:33.272Z,20.32
2022-08-18T01:17:39.910Z,19.98
2022-08-18T01:20:52.746Z,20.07
2022-08-18T01:23:40.410Z,20.24
2022-08-18T01:26:30.289Z,20.35
2022-08-18T01:29:19.644Z,20.35
2022-08-18T01:32:06.971Z,20.23
2022-08-18T01:34:54.864Z,20.18
2022-08-18T01:37:42.179Z,20.29
2022-08-18T01:41:17.457Z,20.36
2022-08-18T01:43:37.379Z,20.36
2022-08-18T01:46:24.728Z,20.22
2022-08-18T01:49:13.203Z,20.26
2022-08-18T01:52:00.538Z,20.15
2022-08-18T01:54:48.807Z,20.05
2022-08-18T01:57:44.873Z,19.88
2022-08-18T02:00:32.479Z,19.76
2022-08-18T02:03:20.095Z,19.70
2022-08-18T02:06:14.727Z,19.72
2022-08-18T02:09:02.242Z,19.68
2022-08-18T02:11:55.846Z,19.73
2022-08-18T02:14:43.806Z,19.85
2022-08-18T02:17:37.962Z,19.94
2022-08-18T02:20:25.525Z,19.98
2022-08-18T02:23:12.777Z,20.00
2022-08-18T02:26:04.644Z,19.97
2022-08-18T02:28:52.327Z,19.87
2022-08-18T02:31:39.805Z,19.51
2022-08-18T02:34:27.162Z,19.71
2022-08-18T02:37:15.558Z,19.72
2022-08-18T02:40:03.970Z,19.77
2022-08-18T02:42:52.710Z,19.88
2022-08-18T02:45:40.145Z,19.83
2022-08-18T02:48:36.510Z,19.85
2022-08-18T02:51:25.787Z,19.92
2022-08-18T02:54:13.386Z,19.90
2022-08-18T02:57:07.973Z,19.84
2022-08-18T02:59:55.487Z,19.83
2022-08-18T03:02:51.359Z,19.69
2022-08-18T03:05:39.325Z,19.62
2022-08-18T03:08:26.608Z,19.49
2022-08-18T03:11:13.979Z,19.53
2022-08-18T03:14:01.338Z,19.62
2022-08-18T03:16:54.522Z,19.57
2022-08-18T03:19:44.947Z,19.62
2022-08-18T03:22:35.064Z,19.50
2022-08-18T03:25:22.403Z,19.42
2022-08-18T03:28:09.895Z,19.32
2022-08-18T03:30:57.428Z,19.32
2022-08-18T03:33:46.446Z,19.41
2022-08-18T03:36:35.314Z,19.50
2022-08-18T03:39:26.864Z,19.49
2022-08-18T03:42:14.187Z,19.46
2022-08-18T03:45:01.452Z,19.42
2022-08-18T03:48:05.025Z,19.35
2022-08-18T03:50:52.268Z,19.17
2022-08-18T03:53:40.175Z,19.13
2022-08-18T03:56:33.961Z,19.15
2022-08-18T03:59:24.083Z,19.11
2022-08-18T04:02:11.877Z,19.23
2022-08-18T04:04:59.157Z,19.23
2022-08-18T04:07:46.435Z,19.10
2022-08-18T04:10:35.453Z,19.09
2022-08-18T04:13:22.695Z,18.94
2022-08-18T04:16:10.514Z,18.89
2022-08-18T04:19:04.844Z,18.90
2022-08-18T04:21:53.472Z,18.70
2022-08-18T04:24:40.742Z,18.94
2022-08-18T04:27:29.653Z,18.91
2022-08-18T04:30:16.951Z,19.08
2022-08-18T04:33:06.273Z,19.01
2022-08-18T04:35:55.301Z,19.18
2022-08-18T04:38:42.785Z,19.19
2022-08-18T04:41:30.108Z,19.24
2022-08-18T04:44:18.459Z,19.21
2022-08-18T04:47:07.498Z,19.21
2022-08-18T04:49:54.756Z,19.26
2022-08-18T04:53:01.946Z,19.38
2022-08-18T04:55:55.323Z,19.40
2022-08-18T04:58:42.584Z,19.50
2022-08-18T05:01:37.483Z,19.55
2022-08-18T05:04:28.624Z,19.60
2022-08-18T05:07:19.651Z,19.64
2022-08-18T05:10:07.135Z,19.66
2022-08-18T05:12:54.610Z,19.63
2022-08-18T05:16:08.994Z,19.64
2022-08-18T05:18:49.681Z,19.57
2022-08-18T05:21:42.842Z,19.72
2022-08-18T05:24:37.582Z,19.65
2022-08-18T05:27:25.148Z,19.69
2022-08-18T05:30:15.332Z,19.69
2022-08-18T05:33:03.493Z,19.69
2022-08-18T05:36:03.477Z,19.77
2022-08-18T05:38:58.786Z,19.79
2022-08-18T05:42:11.146Z,19.87
2022-08-18T05:45:00.335Z,19.90
2022-08-18T05:47:47.860Z,19.98
2022-08-18T05:50:37.770Z,20.12
2022-08-18T05:53:45.124Z,20.02
2022-08-18T05:56:46.398Z,20.07
2022-08-18T05:59:38.402Z,20.13
2022-08-18T06:02:38.452Z,20.29
2022-08-18T06:05:31.626Z,20.21
2022-08-18T06:08:22.548Z,20.28
2022-08-18T06:11:17.365Z,20.28
2022-08-18T06:14:10.787Z,20.20
2022-08-18T06:17:02.519Z,20.23
2022-08-18T06:20:01.651Z,20.22
2022-08-18T06:23:06.127Z,20.28
2022-08-18T06:26:19.753Z,20.27
2022-08-18T06:29:37.975Z,20.30
2022-08-18T06:32:54.621Z,20.37
2022-08-18T06:35:54.916Z,20.49
2022-08-18T06:39:16.094Z,20.42
2022-08-18T06:42:05.538Z,20.36
2022-08-18T06:44:55.757Z,20.26
2022-08-18T06:47:54.678Z,20.37
2022-08-18T06:50:50.195Z,20.50
2022-08-18T06:54:21.478Z,20.52
2022-08-18T06:57:22.402Z,20.59
2022-08-18T07:00:25.575Z,20.64
2022-08-18T07:03:17.800Z,20.69
2022-08-18T07:06:06.867Z,20.85
2022-08-18T07:09:15.376Z,20.84
2022-08-18T07:12:10.860Z,20.89
2022-08-18T07:15:01.846Z,20.72
2022-08-18T07:17:56.263Z,20.76
2022-08-18T07:20:48.584Z,20.78
2022-08-18T07:23:39.674Z,20.85
2022-08-18T07:26:27.017Z,20.91
2022-08-18T07:29:15.672Z,21.02
2022-08-18T07:32:20.835Z,21.07
2022-08-18T07:35:09.958Z,21.16
2022-08-18T07:38:41.088Z,21.44
2022-08-18T07:41:31.814Z,21.57
2022-08-18T07:44:45.123Z,21.74
2022-08-18T07:47:41.641Z,21.97
2022-08-18T07:50:58.672Z,22.07
2022-08-18T07:56:02.539Z,21.93
2022-08-18T07:58:59.625Z,21.89
2022-08-18T08:02:08.963Z,21.89
2022-08-18T08:05:05.244Z,21.74
2022-08-18T08:07:59.594Z,21.76
2022-08-18T08:10:59.194Z,21.93
2022-08-18T08:13:58.353Z,21.91
2022-08-18T08:16:50.400Z,21.89
2022-08-18T08:20:01.882Z,22.02
2022-08-18T08:22:52.560Z,22.05
2022-08-18T08:25:49.983Z,22.15
2022-08-18T08:28:56.129Z,22.12
2022-08-18T08:31:53.105Z,22.10
2022-08-18T08:34:54.982Z,22.10
2022-08-18T08:38:22.940Z,22.06
2022-08-18T08:41:20.113Z,22.16
2022-08-18T08:44:30.346Z,22.21
2022-08-18T08:47:30.084Z,22.36
2022-08-18T08:50:22.869Z,22.35
2022-08-18T08:53:24.864Z,22.32
2022-08-18T08:56:16.126Z,22.38
2022-08-18T08:59:08.690Z,22.44
2022-08-18T09:02:32.197Z,22.46
2022-08-18T09:05:27.043Z,22.59
2022-08-18T09:08:43.105Z,22.84
2022-08-18T09:11:44.165Z,23.00
2022-08-18T09:14:56.106Z,23.13
2022-08-18T09:18:23.851Z,23.23
2022-08-18T09:21:41.114Z,23.22
2022-08-18T09:24:40.471Z,23.19
2022-08-18T09:27:53.941Z,23.33
2022-08-18T09:31:02.903Z,23.34
2022-08-18T09:33:56.588Z,23.35
2022-08-18T09:36:49.750Z,23.15
2022-08-18T09:40:10.845Z,23.38
2022-08-18T09:44:17.998Z,23.56
2022-08-18T09:47:24.250Z,23.83
2022-08-18T09:50:27.044Z,24.07
2022-08-18T09:53:32.543Z,24.11
2022-08-18T09:56:54.538Z,24.04
2022-08-18T09:59:45.765Z,24.14
2022-08-18T10:02:36.818Z,24.32
2022-08-18T10:05:29.223Z,24.33
2022-08-18T10:08:21.413Z,24.41
2022-08-18T10:11:37.010Z,24.51
2022-08-18T10:14:39.603Z,24.71
2022-08-18T10:18:01.647Z,24.85
2022-08-18T10:21:07.526Z,24.93
2022-08-18T10:24:35.024Z,24.84
2022-08-18T10:27:44.318Z,24.82
2022-08-18T10:30:56.983Z,24.82
2022-08-18T10:34:16.967Z,24.71
2022-08-18T10:37:26.334Z,24.88
2022-08-18T10:40:21.358Z,24.70
2022-08-18T10:46:42.626Z,24.68
2022-08-18T10:49:34.173Z,24.74
2022-08-18T10:52:33.963Z,24.61
2022-08-18T10:55:48.422Z,24.66
2022-08-18T10:58:54.731Z,24.70
2022-08-18T11:02:01.763Z,24.76
2022-08-18T11:04:58.896Z,24.68
2022-08-18T11:07:53.522Z,24.81
2022-08-18T11:11:24.828Z,24.90
2022-08-18T11:14:35.864Z,24.76
2022-08-18T11:17:40.658Z,24.97
2022-08-18T11:20:32.588Z,25.01
2022-08-18T11:23:20.750Z,25.05
2022-08-18T11:26:18.355Z,24.81
2022-08-18T11:29:24.405Z,24.66
2022-08-18T11:32:23.071Z,24.57
2022-08-18T11:35:10.680Z,24.62
2022-08-18T11:38:13.522Z,24.81
2022-08-18T11:41:33.145Z,25.04
2022-08-18T11:44:38.651Z,25.16
2022-08-18T11:47:27.785Z,25.39
2022-08-18T11:50:28.135Z,25.56
2022-08-18T11:53:33.555Z,25.64
2022-08-18T11:56:30.744Z,25.75
2022-08-18T11:59:25.053Z,25.70
2022-08-18T12:02:32.338Z,25.67
2022-08-18T12:05:19.880Z,25.70
2022-08-18T12:08:41.895Z,25.79
2022-08-18T12:11:33.656Z,25.78
2022-08-18T12:14:30.391Z,25.65
2022-08-18T12:17:21.817Z,25.43
2022-08-18T12:20:11.973Z,25.51
2022-08-18T12:22:59.429Z,25.57
2022-08-18T12:25:46.722Z,25.71
2022-08-18T12:28:39.493Z,25.84
2022-08-18T12:31:29.048Z,25.86
2022-08-18T12:34:30.133Z,25.98
2022-08-18T12:37:56.707Z,26.03
2022-08-18T12:40:27.675Z,26.08
2022-08-18T12:43:14.934Z,25.92
2022-08-18T12:46:03.672Z,26.06
2022-08-18T12:48:51.642Z,26.05
2022-08-18T12:51:39.664Z,26.10
2022-08-18T12:54:27.110Z,26.06
2022-08-18T13:00:29.926Z,26.12
2022-08-18T13:03:19.059Z,26.24
2022-08-18T13:06:06.683Z,26.06
2022-08-18T13:08:58.448Z,26.22
2022-08-18T13:11:45.914Z,26.10
2022-08-18T13:14:34.031Z,26.19
2022-08-18T13:17:32.086Z,26.11
2022-08-18T13:20:21.585Z,26.23
2022-08-18T13:23:09.675Z,26.37
2022-08-18T13:26:02.175Z,26.36
2022-08-18T13:28:58.256Z,26.29
2022-08-18T13:31:55.707Z,26.36
2022-08-18T13:34:44.627Z,26.41
2022-08-18T13:37:37.414Z,26.44
2022-08-18T13:40:29.469Z,26.35
2022-08-18T13:43:20.970Z,26.32
2022-08-18T13:46:17.294Z,26.46
2022-08-18T13:49:04.555Z,26.35
2022-08-18T13:51:59.173Z,26.38
2022-08-18T13:54:53.308Z,26.46
2022-08-18T13:57:53.588Z,26.44
2022-08-18T14:00:42.094Z,26.58
2022-08-18T14:03:42.945Z,26.51
2022-08-18T14:06:35.183Z,26.64
2022-08-18T14:09:27.894Z,26.80
2022-08-18T14:12:29.614Z,26.92
2022-08-18T14:15:20.841Z,27.02
2022-08-18T14:18:08.077Z,27.14
2022-08-18T14:21:23.418Z,27.20
2022-08-18T14:24:29.170Z,27.14
2022-08-18T14:27:24.637Z,27.13
2022-08-18T14:30:14.671Z,26.93
2022-08-18T14:33:05.653Z,27.01
2022-08-18T14:36:06.226Z,27.03
2022-08-18T14:38:58.054Z,26.85
2022-08-18T14:41:54.595Z,26.79
2022-08-18T14:44:42.323Z,26.91
2022-08-18T14:47:33.333Z,27.06
2022-08-18T14:50:25.685Z,27.05
2022-08-18T14:53:14.312Z,27.01
2022-08-18T14:56:02.498Z,26.92
2022-08-18T14:58:49.751Z,26.91
2022-08-18T15:01:42.738Z,26.93
2022-08-18T15:04:30.428Z,26.95
2022-08-18T15:07:19.990Z,27.03
2022-08-18T15:10:14.811Z,27.10
2022-08-18T15:13:04.255Z,27.08
2022-08-18T15:15:52.177Z,27.04
2022-08-18T15:18:41.375Z,27.01
2022-08-18T15:21:49.123Z,26.93
2022-08-18T15:24:58.657Z,26.81
2022-08-18T15:27:46.015Z,26.87
2022-08-18T15:30:39.838Z,26.82
2022-08-18T15:33:31.621Z,26.91
2022-08-18T15:36:29.190Z,26.91
2022-08-18T15:39:16.926Z,26.91
2022-08-18T15:42:10.742Z,26.87
2022-08-18T15:45:11.628Z,26.92
2022-08-18T15:47:59.832Z,26.99
2022-08-18T15:50:50.943Z,27.09
2022-08-18T15:53:40.092Z,27.06
2022-08-18T15:56:32.869Z,27.04
2022-08-18T15:59:20.428Z,26.96
2022-08-18T16:02:11.797Z,26.81
2022-08-18T16:05:10.475Z,26.65
2022-08-18T16:08:01.138Z,26.43
2022-08-18T16:10:48.396Z,26.45
2022-08-18T16:13:35.750Z,26.45
2022-08-18T16:16:29.373Z,26.37
2022-08-18T16:19:25.668Z,26.31
2022-08-18T16:22:13.364Z,26.33
2022-08-18T16:25:02.403Z,26.20
2022-08-18T16:27:49.916Z,26.15
2022-08-18T16:30:37.309Z,26.15
2022-08-18T16:33:24.735Z,26.17
2022-08-18T16:36:14.520Z,26.24
2022-08-18T16:39:01.654Z,26.23
2022-08-18T16:41:48.889Z,26.23
2022-08-18T16:44:36.444Z,26.15
2022-08-18T16:47:23.740Z,26.06
2022-08-18T16:50:15.065Z,25.85
2022-08-18T16:53:02.387Z,25.79
2022-08-18T16:55:49.849Z,25.72
2022-08-18T16:58:55.771Z,25.72
2022-08-18T17:02:01.759Z,25.66
2022-08-18T17:04:51.929Z,25.65
2022-08-18T17:07:39.221Z,25.69
2022-08-18T17:10:26.962Z,25.70
2022-08-18T17:13:14.639Z,25.62
2022-08-18T17:16:01.982Z,25.62
2022-08-18T17:18:49.377Z,25.54
2022-08-18T17:21:37.557Z,25.47
2022-08-18T17:24:32.114Z,25.41
2022-08-18T17:27:26.703Z,25.31
2022-08-18T17:30:22.427Z,25.29
2022-08-18T17:33:14.968Z,25.27
2022-08-18T17:36:08.025Z,25.21
2022-08-18T17:38:58.877Z,25.15
2022-08-18T17:42:05.081Z,25.11
2022-08-18T17:44:58.981Z,25.01
2022-08-18T17:48:01.681Z,24.98
2022-08-18T17:51:28.439Z,24.92
2022-08-18T17:54:33.182Z,24.86
2022-08-18T17:57:29.384Z,24.76
2022-08-18T18:00:23.206Z,24.75
2022-08-18T18:03:13.166Z,24.70
2022-08-18T18:06:10.608Z,24.70
2022-08-18T18:09:09.739Z,24.67
2022-08-18T18:11:57.652Z,24.64
2022-08-18T18:14:44.946Z,24.69
2022-08-18T18:17:37.636Z,24.70
2022-08-18T18:20:39.463Z,24.65
2022-08-18T18:23:31.376Z,24.64
2022-08-18T18:26:37.875Z,24.65
2022-08-18T18:29:33.282Z,24.59
2022-08-18T18:32:29.137Z,24.66
2022-08-18T18:35:27.170Z,24.62
2022-08-18T18:38:36.661Z,24.57
2022-08-18T18:41:27.822Z,24.54
2022-08-18T18:44:16.220Z,24.39
2022-08-18T18:47:14.961Z,24.38
2022-08-18T18:50:18.832Z,24.40
2022-08-18T18:53:29.893Z,24.30
2022-08-18T18:56:40.985Z,24.23
2022-08-18T19:00:04.142Z,24.18
2022-08-18T19:03:22.767Z,24.08
2022-08-18T19:06:19.059Z,24.00
2022-08-18T19:09:17.718Z,23.99
2022-08-18T19:12:19.897Z,23.96
2022-08-18T19:15:14.876Z,23.94
2022-08-18T19:18:16.105Z,23.83
2022-08-18T19:22:02.271Z,23.73
2022-08-18T19:24:24.633Z,23.78
2022-08-18T19:27:23.290Z,23.66
2022-08-18T19:30:14.346Z,23.55
2022-08-18T19:33:04.302Z,23.47
2022-08-18T19:35:59.926Z,23.49
2022-08-18T19:38:47.169Z,23.43
2022-08-18T19:41:39.462Z,23.39
2022-08-18T19:45:15.397Z,23.39
2022-08-18T19:48:24.198Z,23.34
2022-08-18T19:51:27.051Z,23.38
2022-08-18T19:54:22.275Z,23.37
2022-08-18T19:57:22.398Z,23.23
2022-08-18T20:00:31.009Z,23.39
2022-08-18T20:03:52.486Z,23.42
2022-08-18T20:07:07.478Z,23.09
2022-08-18T20:10:16.830Z,23.17
2022-08-18T20:13:07.465Z,23.08
2022-08-18T20:16:12.861Z,23.16
2022-08-18T20:19:01.514Z,23.08
2022-08-18T20:22:07.986Z,22.85
2022-08-18T20:25:30.338Z,22.91
2022-08-18T20:28:32.041Z,22.74
2022-08-18T20:31:22.717Z,22.66
2022-08-18T20:34:14.424Z,22.76
2022-08-18T20:37:10.186Z,22.63
2022-08-18T20:39:58.051Z,22.57
2022-08-18T20:42:56.107Z,22.65
2022-08-18T20:46:14.634Z,22.59
2022-08-18T20:49:50.333Z,22.66
2022-08-18T20:53:00.414Z,22.52
2022-08-18T20:56:31.424Z,22.61
2022-08-18T20:59:28.745Z,22.55
2022-08-18T21:02:43.089Z,22.51
2022-08-18T21:05:35.884Z,22.45
2022-08-18T21:08:28.840Z,22.43
2022-08-18T21:11:32.075Z,22.37
2022-08-18T21:14:29.985Z,22.35
2022-08-18T21:17:17.648Z,22.12
2022-08-18T21:20:13.670Z,22.06
2022-08-18T21:23:44.538Z,21.98
2022-08-18T21:26:33.545Z,21.96
2022-08-18T21:29:22.629Z,22.08
2022-08-18T21:32:12.776Z,21.87
2022-08-18T21:35:17.787Z,21.80
2022-08-18T21:38:09.512Z,22.10
2022-08-18T21:41:00.099Z,21.76
2022-08-18T21:43:50.301Z,22.20
2022-08-18T21:46:38.808Z,21.79
2022-08-18T21:49:28.108Z,22.11
2022-08-18T21:52:24.151Z,22.32
2022-08-18T21:55:21.260Z,21.89
2022-08-18T21:58:09.580Z,22.24
2022-08-18T22:01:14.841Z,21.88
2022-08-18T22:04:26.991Z,22.18
2022-08-18T22:07:34.563Z,21.76
2022-08-18T22:10:48.123Z,21.84
2022-08-18T22:14:01.948Z,21.63
2022-08-18T22:16:50.728Z,21.57
2022-08-18T22:19:38.140Z,21.30
2022-08-18T22:23:05.431Z,21.58
2022-08-18T22:25:52.908Z,21.50
2022-08-18T22:29:00.711Z,21.85
2022-08-18T22:31:50.939Z,21.43
2022-08-18T22:34:38.487Z,21.73
2022-08-18T22:37:30.266Z,21.72
2022-08-18T22:40:21.624Z,21.15
2022-08-18T22:43:09.536Z,21.28
2022-08-18T22:45:56.874Z,21.40
2022-08-18T22:48:45.835Z,21.44
2022-08-18T22:51:36.806Z,21.46
2022-08-18T22:54:26.355Z,21.39
2022-08-18T22:57:14.660Z,21.05
2022-08-18T23:00:12.828Z,21.79
2022-08-18T23:03:01.465Z,21.49
2022-08-18T23:05:48.833Z,21.29
2022-08-18T23:08:55.477Z,21.09
2022-08-18T23:11:43.403Z,20.94
2022-08-18T23:14:32.842Z,21.57
2022-08-18T23:17:21.479Z,21.60
2022-08-18T23:20:12.548Z,21.38
2022-08-18T23:23:05.486Z,21.24
2022-08-18T23:25:55.659Z,21.21
2022-08-18T23:28:46.624Z,21.38
2022-08-18T23:31:34.054Z,21.27
2022-08-18T23:34:23.188Z,21.54
2022-08-18T23:37:10.592Z,21.21
2022-08-18T23:39:58.427Z,21.58
2022-08-18T23:42:46.477Z,21.63
2022-08-18T23:45:36.384Z,20.98
2022-08-18T23:48:23.882Z,21.28
2022-08-18T23:51:11.212Z,20.89
2022-08-18T23:54:08.078Z,20.62
2022-08-18T23:56:56.386Z,21.01
2022-08-18T23:59:43.709Z,20.80
